Latest Weather Observations for Leonora Airport

IDW60801

Issued at 2:35 pm WST Saturday 25 October 2014 (issued every 30 minutes, with the page automatically refreshed every 10 minutes)

About weather observations | Map of weather stations | Latest weather observations for WA | Other Formats
Station Details ID: 012241 Name: LEONORA AERO Lat: -28.88 Lon: 121.32 Height: 370.0 m
Data from the previous 72 hours. | See also: Recent months for locations in Western Australia
Date/Time
WST
Temp
°C
App
Temp
°C
Dew
Point
Rel
Hum
%
Delta-T
°C
Wind Press
QNH
hPa
Press
MSL
hPa
Rain
since 9 am
mm
Dir
 
Spd
km/h
Gust
km/h
Spd
kts
Gust
kts
25/02:30pm 37.2 28.2 -8.7 5 20.4 NW 32 46 17 25 1011.4 1009.9 0.0
25/02:00pm 36.7 27.1 -9.0 5 20.1 NW 35 54 19 29 1011.5 1010.0 0.0
25/01:30pm 37.4 29.1 -8.5 5 20.5 WNW 28 48 15 26 1011.7 1010.2 0.0
25/01:04pm 37.4 28.8 -8.5 5 20.5 WNW 30 48 16 26 1011.8 1010.3 0.0
25/01:00pm 37.3 28.3 -8.6 5 20.4 W 32 44 17 24 1011.8 1010.3 0.0
25/12:52pm 37.3 28.7 -8.6 5 20.4 NW 30 48 16 26 1011.8 1010.3 0.0
25/12:30pm 36.8 28.7 -6.6 6 19.9 NW 28 44 15 24 1012.0 1010.5 0.0
25/12:19pm 36.4 28.3 -6.9 6 19.7 WNW 28 48 15 26 1012.0 1010.5 0.0
25/12:00pm 36.7 29.0 -6.7 6 19.8 NW 26 35 14 19 1012.1 1010.6 0.0
25/11:30am 36.3 27.8 -7.0 6 19.6 WNW 30 50 16 27 1012.7 1011.2 0.0
25/11:16am 35.9 27.8 -7.2 6 19.4 NW 28 46 15 25 1012.8 1011.3 0.0
25/11:00am 35.7 28.1 -5.4 7 19.0 NW 26 41 14 22 1012.9 1011.4 0.0
25/10:51am 35.5 27.7 -3.8 8 18.6 NW 28 46 15 25 1012.9 1011.4 0.0
25/10:30am 34.9 27.3 -6.0 7 18.6 NW 26 44 14 24 1013.2 1011.7 0.0
25/10:00am 34.5 27.6 -2.9 9 17.9 WNW 24 35 13 19 1013.5 1012.0 0.0
25/09:30am 34.0 28.3 0.6 12 16.8 NW 20 32 11 17 1013.6 1012.1 0.0
25/09:00am 32.5 27.7 2.5 15 15.5 NW 17 22 9 12 1013.7 1012.2 0.0
25/08:30am 31.4 27.0 5.0 19 14.1 WNW 17 20 9 11 1013.6 1012.1 0.0
25/08:00am 31.1 27.4 6.2 21 13.5 NNW 15 20 8 11 1013.6 1012.1 0.0
25/07:30am 29.2 26.2 7.7 26 11.9 NNW 13 22 7 12 1013.4 1011.9 0.0
25/07:27am 29.0 26.6 8.7 28 11.4 NNW 11 19 6 10 1013.4 1011.9 0.0
25/07:00am 24.0 22.6 9.6 40 8.0 WNW 7 13 4 7 1013.2 1011.7 0.0
25/06:30am 21.3 19.5 9.5 47 6.4 W 9 15 5 8 1013.3 1011.8 0.0
25/06:00am 19.7 18.8 9.3 51 5.6 W 4 13 2 7 1013.0 1011.5 0.0
25/05:30am 19.6 17.9 10.0 54 5.2 NE 9 9 5 5 1012.6 1011.1 0.0
25/05:00am 19.1 17.9 10.4 57 4.8 NE 7 11 4 6 1012.3 1010.8 0.0
25/04:30am 17.9 16.6 9.3 57 4.6 E 6 11 3 6 1012.2 1010.7 0.0
25/04:00am 17.8 16.3 8.4 54 4.9 WSW 6 11 3 6 1012.3 1010.8 0.0
25/03:30am 18.8 17.3 9.0 53 5.2 E 7 11 4 6 1012.1 1010.6 0.0
25/03:00am 18.6 18.0 8.8 53 5.2 SSE 2 9 1 5 1012.1 1010.6 0.0
25/02:30am 19.2 18.1 8.5 50 5.7 WNW 4 11 2 6 1012.2 1010.7 0.0
25/02:00am 20.3 19.6 8.6 47 6.2 W 2 6 1 3 1012.1 1010.6 0.0
25/01:30am 21.7 21.2 7.9 41 7.3 CALM 0 0 0 0 1012.2 1010.7 0.0
25/01:00am 23.0 20.7 7.5 37 8.2 ESE 9 13 5 7 1012.4 1010.9 0.0
25/12:30am 22.9 20.4 8.2 39 7.9 ESE 11 15 6 8 1013.0 1011.5 0.0
25/12:00am 22.9 21.3 7.8 38 8.1 SE 6 9 3 5 1013.4 1011.9 0.0
 
Date/Time
WST
Temp
°C
App
Temp
°C
Dew
Point
Rel
Hum
%
Delta-T
°C
Wind Press
QNH
hPa
Press
MSL
hPa
Rain
since 9 am
mm
Dir
 
Spd
km/h
Gust
km/h
Spd
kts
Gust
kts
24/11:30pm 23.4 20.8 7.9 37 8.3 ESE 11 13 6 7 1013.7 1012.2 0.0
24/11:00pm 24.4 22.3 6.6 32 9.4 ESE 7 9 4 5 1013.8 1012.3 0.0
24/10:30pm 25.1 22.9 6.3 30 9.9 E 7 11 4 6 1013.8 1012.3 0.0
24/10:00pm 26.3 23.7 6.3 28 10.6 E 9 13 5 7 1013.7 1012.2 0.0
24/09:30pm 26.6 23.6 6.1 27 10.8 E 11 15 6 8 1013.7 1012.2 0.0
24/09:00pm 26.7 23.6 5.6 26 11.1 E 11 13 6 7 1013.6 1012.1 0.0
24/08:30pm 27.7 24.0 4.7 23 11.9 ESE 13 15 7 8 1013.4 1011.9 0.0
24/08:00pm 28.1 25.0 3.7 21 12.5 ESE 9 13 5 7 1013.2 1011.7 0.0
24/07:30pm 29.2 25.9 2.5 18 13.5 SE 9 13 5 7 1012.8 1011.3 0.0
24/07:00pm 29.3 26.0 2.5 18 13.5 SSE 9 9 5 5 1012.7 1011.2 0.0
24/06:30pm 30.3 27.3 1.7 16 14.3 S 7 9 4 5 1012.4 1010.9 0.0
24/06:00pm 32.4 29.2 0.5 13 15.9 SSW 7 11 4 6 1012.1 1010.6 0.0
24/05:30pm 33.5 29.7 -1.0 11 16.9 SSW 9 15 5 8 1012.0 1010.5 0.0
24/05:00pm 34.3 31.1 -0.4 11 17.2 NW 6 15 3 8 1011.9 1010.4 0.0
24/04:30pm 34.8 29.8 -1.3 10 17.7 WNW 15 20 8 11 1011.9 1010.4 0.0
24/04:00pm 34.1 30.0 -0.5 11 17.1 NNW 11 22 6 12 1012.0 1010.5 0.0
24/03:30pm 34.1 30.0 -0.5 11 17.1 NW 11 19 6 10 1012.3 1010.8 0.0
24/03:00pm 33.9 30.5 -0.7 11 17.1 N 7 13 4 7 1012.7 1011.2 0.0
24/02:30pm 33.3 29.0 1.2 13 16.3 ESE 13 44 7 24 1013.0 1011.5 0.0
24/02:21pm 33.9 25.9 0.5 12 16.8 ENE 32 46 17 25 1012.6 1011.1 0.0
24/02:00pm 33.4 31.0 2.3 14 16.1 SSE 4 9 2 5 1013.5 1012.0 0.0
24/01:30pm 32.3 29.4 1.4 14 15.6 NE 6 17 3 9 1013.8 1012.3 0.0
24/01:00pm 31.8 27.7 2.0 15 15.2 NNE 13 26 7 14 1014.2 1012.7 0.0
24/12:30pm 31.6 27.2 2.7 16 14.9 NE 15 26 8 14 1014.7 1013.2 0.0
24/12:00pm 31.3 27.6 2.5 16 14.7 NE 11 20 6 11 1015.1 1013.7 0.0
24/11:30am 30.6 27.4 2.8 17 14.2 ENE 9 20 5 11 1015.7 1014.2 0.0
24/11:00am 30.3 26.6 2.5 17 14.1 E 11 19 6 10 1016.1 1014.6 0.0
24/10:30am 29.0 25.9 3.8 20 13.0 NE 9 20 5 11 1016.5 1015.0 0.0
24/10:00am 28.3 24.5 3.9 21 12.5 E 13 24 7 13 1016.7 1015.2 0.0
24/09:30am 27.4 23.7 4.5 23 11.8 E 13 22 7 12 1017.0 1015.5 0.0
24/09:00am 26.7 22.1 5.6 26 11.1 ESE 19 26 10 14 1017.2 1015.7 0.0
24/08:30am 25.4 21.2 5.6 28 10.3 E 17 26 9 14 1017.2 1015.7 0.0
24/08:00am 24.2 19.7 6.0 31 9.5 ESE 19 28 10 15 1017.2 1015.7 0.0
24/07:30am 22.8 18.2 6.6 35 8.5 ESE 20 28 11 15 1017.1 1015.6 0.0
24/07:00am 21.5 17.6 7.0 39 7.5 ESE 17 26 9 14 1017.2 1015.7 0.0
24/06:30am 20.0 16.5 7.4 44 6.6 ESE 15 20 8 11 1017.2 1015.7 0.0
24/06:00am 18.3 15.3 7.7 50 5.5 ESE 13 17 7 9 1016.8 1015.3 0.0
24/05:30am 17.6 14.6 7.6 52 5.1 ESE 13 15 7 8 1016.4 1014.9 0.0
24/05:00am 17.2 14.8 7.0 51 5.2 SE 9 15 5 8 1016.1 1014.6 0.0
24/04:30am 17.9 15.5 7.0 49 5.6 SE 9 17 5 9 1015.9 1014.4 0.0
24/04:00am 17.9 15.0 6.7 48 5.7 SE 11 15 6 8 1015.8 1014.3 0.0
24/03:30am 18.1 15.6 6.6 47 5.8 SE 9 13 5 7 1015.6 1014.1 0.0
24/03:00am 18.7 16.1 6.2 44 6.3 SE 9 13 5 7 1015.3 1013.9 0.0
24/02:30am 19.0 16.4 6.1 43 6.5 SSE 9 11 5 6 1015.3 1013.9 0.0
24/02:00am 19.2 17.0 6.3 43 6.5 SE 7 11 4 6 1015.5 1014.0 0.0
24/01:30am 19.2 16.6 6.3 43 6.5 SSE 9 11 5 6 1015.5 1014.0 0.0
24/01:00am 18.3 16.4 6.8 47 5.8 S 6 7 3 4 1015.5 1014.0 0.0
24/12:30am 19.2 16.8 5.3 40 6.9 S 7 9 4 5 1015.6 1014.1 0.0
24/12:00am 20.1 17.3 5.0 37 7.5 S 9 11 5 6 1015.6 1014.1 0.0
 
Date/Time
WST
Temp
°C
App
Temp
°C
Dew
Point
Rel
Hum
%
Delta-T
°C
Wind Press
QNH
hPa
Press
MSL
hPa
Rain
since 9 am
mm
Dir
 
Spd
km/h
Gust
km/h
Spd
kts
Gust
kts
23/11:30pm 20.1 17.3 5.0 37 7.5 S 9 9 5 5 1015.7 1014.2 0.0
23/11:00pm 21.4 18.5 4.9 34 8.3 S 9 13 5 7 1015.6 1014.1 0.0
23/10:30pm 21.3 18.7 4.4 33 8.4 S 7 9 4 5 1015.7 1014.2 0.0
23/10:00pm 21.9 18.4 3.6 30 9.0 S 11 15 6 8 1015.6 1014.1 0.0
23/09:30pm 21.8 18.2 3.0 29 9.1 SSW 11 15 6 8 1015.5 1014.0 0.0
23/09:00pm 22.1 18.8 2.2 27 9.5 SSW 9 11 5 6 1015.5 1014.0 0.0
23/08:30pm 23.6 20.1 1.3 23 10.6 SSW 9 13 5 7 1015.3 1013.9 0.0
23/08:00pm 24.7 20.5 1.6 22 11.1 SW 13 17 7 9 1015.2 1013.8 0.0
23/07:30pm 25.1 21.6 1.3 21 11.4 SW 9 11 5 6 1015.0 1013.6 0.0
23/07:00pm 26.2 22.4 1.5 20 12.0 SW 11 13 6 7 1014.6 1013.1 0.0
23/06:30pm 27.6 23.6 0.4 17 13.1 WSW 11 15 6 8 1014.0 1012.5 0.0
23/06:00pm 29.1 24.1 -1.1 14 14.3 WSW 15 24 8 13 1013.6 1012.1 0.0
23/05:30pm 29.9 23.9 -1.5 13 14.9 WSW 20 28 11 15 1013.1 1011.6 0.0
23/05:00pm 30.6 24.9 -0.9 13 15.1 WNW 19 22 10 12 1012.8 1011.3 0.0
23/04:30pm 30.7 25.1 1.1 15 14.7 W 20 32 11 17 1012.7 1011.2 0.0
23/04:00pm 30.9 24.9 1.3 15 14.8 WNW 22 30 12 16 1012.4 1010.9 0.0
23/03:30pm 31.0 25.6 2.3 16 14.6 WNW 20 33 11 18 1012.4 1010.9 0.0
23/03:00pm 31.7 25.1 -0.1 13 15.6 NW 24 33 13 18 1012.4 1010.9 0.0
23/02:30pm 30.9 24.3 2.2 16 14.6 W 26 37 14 20 1012.7 1011.2 0.0
23/02:00pm 30.3 23.6 3.4 18 13.9 WNW 28 43 15 23 1013.0 1011.5 0.0
23/01:30pm 30.0 24.0 5.3 21 13.1 WNW 26 33 14 18 1013.3 1011.8 0.0
23/01:00pm 28.5 22.1 5.4 23 12.2 NW 28 41 15 22 1013.8 1012.3 0.0
23/12:30pm 28.5 23.2 6.6 25 11.8 WNW 24 39 13 21 1014.0 1012.5 0.0
23/12:00pm 27.9 24.3 6.6 26 11.4 W 15 20 8 11 1014.3 1012.8 0.0
23/11:30am 27.7 23.2 7.0 27 11.2 WNW 20 28 11 15 1014.8 1013.3 0.0
23/11:00am 26.9 23.0 6.9 28 10.7 W 17 28 9 15 1015.3 1013.9 0.0
23/10:30am 25.0 21.4 6.7 31 9.7 W 15 24 8 13 1015.9 1014.4 0.0
23/10:00am 24.6 21.4 6.8 32 9.4 WSW 13 20 7 11 1016.2 1014.7 0.0
23/09:30am 23.8 20.1 6.1 32 9.2 WSW 15 24 8 13 1016.6 1015.1 0.0
23/09:00am 23.4 20.2 6.7 34 8.7 SSW 13 19 7 10 1016.8 1015.3 0.0
23/08:30am 23.5 20.0 7.2 35 8.6 SW 15 26 8 14 1016.8 1015.3 0.0
23/08:00am 23.1 19.3 7.6 37 8.2 SW 17 28 9 15 1016.9 1015.4 0.0
23/07:30am 22.2 19.1 8.7 42 7.3 SSW 15 20 8 11 1016.5 1015.0 0.0
23/07:00am 21.8 18.7 8.7 43 7.1 SW 15 22 8 12 1016.2 1014.7 0.0
23/06:30am 21.5 18.0 8.7 44 6.9 WSW 17 22 9 12 1016.0 1014.5 0.0
23/06:00am 20.9 18.3 9.2 47 6.3 W 13 17 7 9 1015.6 1014.1 0.0
23/05:30am 20.0 18.1 9.0 49 5.9 W 9 11 5 6 1015.6 1014.1 0.0
23/05:00am 20.3 18.7 8.9 48 6.1 SW 7 9 4 5 1015.6 1014.1 0.0
23/04:30am 21.1 19.0 8.4 44 6.8 SW 9 17 5 9 1015.3 1013.9 0.0
23/04:00am 21.6 18.9 7.4 40 7.5 WSW 11 17 6 9 1014.7 1013.2 0.0
23/03:30am 22.7 19.3 6.0 34 8.6 WSW 13 17 7 9 1014.1 1012.6 0.0
23/03:00am 23.8 21.0 5.2 30 9.5 W 9 13 5 7 1013.6 1012.1 0.0
23/02:30am 25.1 21.1 4.8 27 10.4 W 15 20 8 11 1013.2 1011.7 0.0
23/02:00am 26.2 22.4 4.1 24 11.3 WNW 13 20 7 11 1013.3 1011.8 0.0
23/01:30am 26.1 22.7 4.0 24 11.2 NW 11 13 6 7 1013.1 1011.6 0.0
23/01:00am 27.0 23.1 3.5 22 11.9 WNW 13 17 7 9 1012.7 1011.2 0.0
23/12:30am 27.7 23.0 3.4 21 12.3 WNW 17 24 9 13 1013.0 1011.5 0.0
23/12:00am 28.1 23.0 3.0 20 12.7 WNW 19 28 10 15 1013.6 1012.1 0.0
 
Date/Time
WST
Temp
°C
App
Temp
°C
Dew
Point
Rel
Hum
%
Delta-T
°C
Wind Press
QNH
hPa
Press
MSL
hPa
Rain
since 9 am
mm
Dir
 
Spd
km/h
Gust
km/h
Spd
kts
Gust
kts
22/11:30pm 28.5 23.3 2.7 19 13.0 WNW 19 30 10 16 1013.7 1012.2 0.0
22/11:00pm 28.1 24.3 3.7 21 12.5 NW 13 17 7 9 1013.8 1012.3 0.0
22/10:30pm 28.9 24.6 3.0 19 13.2 NNW 15 19 8 10 1013.9 1012.4 0.0
22/10:00pm 29.3 25.4 3.3 19 13.3 NNW 13 19 7 10 1014.0 1012.5 0.0
22/09:30pm 29.6 25.6 2.8 18 13.6 NNW 13 15 7 8 1014.3 1012.8 0.0
22/09:00pm 30.2 25.4 2.5 17 14.1 NNW 17 24 9 13 1014.4 1012.9 0.0
22/08:30pm 30.4 25.7 0.9 15 14.6 NNW 15 20 8 11 1014.4 1012.9 0.0
22/08:00pm 31.0 25.3 -0.6 13 15.3 NNW 19 24 10 13 1014.3 1012.8 0.0
22/07:30pm 31.3 26.4 -0.4 13 15.4 NNW 15 22 8 12 1014.1 1012.6 0.0
22/07:00pm 31.4 26.5 -0.3 13 15.5 N 15 19 8 10 1013.8 1012.3 0.0
22/06:30pm 32.1 27.3 0.2 13 15.8 N 15 20 8 11 1013.8 1012.3 0.0
22/06:00pm 32.7 27.0 -0.4 12 16.3 N 19 24 10 13 1013.5 1012.0 0.0
22/05:30pm 33.0 28.1 2.0 14 15.9 N 17 22 9 12 1013.4 1011.9 0.0
22/05:00pm 33.5 28.1 1.3 13 16.4 N 19 30 10 16 1013.4 1011.9 0.0
22/04:30pm 34.0 26.6 1.7 13 16.6 N 30 39 16 21 1013.6 1012.1 0.0
22/04:00pm 34.7 26.8 1.1 12 17.1 N 32 44 17 24 1013.6 1012.1 0.0
22/03:42pm 34.7 27.2 1.1 12 17.1 N 30 48 16 26 1013.5 1012.0 0.0
22/03:30pm 35.0 28.7 1.4 12 17.3 N 24 41 13 22 1013.5 1012.0 0.0
22/03:00pm 34.8 27.5 2.3 13 16.9 N 30 43 16 23 1013.9 1012.4 0.0

Other Formats:

Comma delimited format used in spreadsheet applications
http://www.bom.gov.au/fwo/IDW60801/IDW60801.94450.axf

JavaScript Object Notation format (JSON) in row-major order
http://www.bom.gov.au/fwo/IDW60801/IDW60801.94450.json